Time;durP1;ratioP1;P1;durP2;ratioP2;P2;SDS_P1;SDS_P2;PMS_P1;PMS_P2;Temp;Humidity;BMP_temperature;BMP_pressure;BME280_temperature;BME280_humidity;BME280_pressure;Samples;Min_cycle;Max_cycle;Signal;HPM_P1;HPM_P2
2023/05/20 00:00:02;;;;;;;1.70;0.90;;;19.70;57.40;;;;;;5131761;27;46095;-74
2023/05/20 00:02:29;;;;;;;0.85;0.70;;;19.60;56.20;;;;;;5131432;27;45281;-70
2023/05/20 00:04:56;;;;;;;1.35;0.98;;;19.70;56.80;;;;;;5135499;27;45342;-69
2023/05/20 00:07:23;;;;;;;1.75;0.75;;;19.70;56.70;;;;;;5134145;27;45508;-72
2023/05/20 00:09:50;;;;;;;0.95;0.60;;;19.70;56.60;;;;;;5136017;27;46302;-72
2023/05/20 00:12:18;;;;;;;0.77;0.68;;;19.70;56.60;;;;;;5134335;27;45295;-71
2023/05/20 00:14:45;;;;;;;0.93;0.70;;;19.70;56.40;;;;;;5128845;27;45313;-70
2023/05/20 00:17:12;;;;;;;1.15;0.85;;;19.70;56.40;;;;;;5124692;27;45797;-71
2023/05/20 00:19:39;;;;;;;1.60;0.82;;;19.70;56.50;;;;;;5138872;27;45354;-72
2023/05/20 00:22:05;;;;;;;0.70;0.60;;;19.70;56.60;;;;;;5136624;27;45302;-72
2023/05/20 00:24:32;;;;;;;1.27;0.82;;;19.70;55.80;;;;;;5150941;27;45547;-70
2023/05/20 00:26:59;;;;;;;0.73;0.52;;;19.80;55.90;;;;;;5128667;27;45529;-70
2023/05/20 00:29:27;;;;;;;0.80;0.60;;;19.80;55.80;;;;;;5125675;27;46285;-70
2023/05/20 00:31:54;;;;;;;1.73;0.80;;;19.80;55.80;;;;;;5141864;27;45796;-70
2023/05/20 00:34:21;;;;;;;1.25;0.90;;;19.80;55.90;;;;;;5127233;27;45313;-70
2023/05/20 00:36:47;;;;;;;1.52;0.70;;;19.80;55.90;;;;;;5133316;27;45530;-70
2023/05/20 00:39:14;;;;;;;0.93;0.70;;;19.80;56.10;;;;;;5134640;27;46589;-70
2023/05/20 00:41:41;;;;;;;0.68;0.65;;;19.80;56.00;;;;;;5132204;27;45338;-70
2023/05/20 00:44:08;;;;;;;1.88;0.80;;;19.80;56.00;;;;;;5132917;27;45398;-70
2023/05/20 00:46:37;;;;;;;1.55;0.70;;;19.70;56.00;;;;;;5134059;27;45693;-70
2023/05/20 00:49:04;;;;;;;1.05;0.90;;;19.70;55.90;;;;;;5128467;27;47536;-72
2023/05/20 00:51:31;;;;;;;0.93;0.80;;;19.70;55.90;;;;;;5125604;27;45423;-70
2023/05/20 00:53:58;;;;;;;1.25;0.70;;;19.70;55.90;;;;;;5129771;27;45536;-71
2023/05/20 00:56:25;;;;;;;1.88;1.00;;;19.70;56.00;;;;;;5124552;27;45464;-70
2023/05/20 00:58:52;;;;;;;1.65;0.90;;;19.70;56.00;;;;;;5135858;27;47534;-70
2023/05/20 01:01:19;;;;;;;2.92;0.70;;;19.70;56.00;;;;;;5124534;27;45366;-70
2023/05/20 01:03:47;;;;;;;1.38;0.77;;;19.70;56.10;;;;;;5130975;27;45315;-70
2023/05/20 01:06:14;;;;;;;1.23;0.82;;;19.70;55.90;;;;;;5144968;27;45493;-71
2023/05/20 01:08:41;;;;;;;2.22;1.10;;;19.60;55.70;;;;;;5125696;27;45341;-70
2023/05/20 01:11:14;;;;;;;1.85;0.80;;;19.70;56.00;;;;;;5124398;27;45597;-70
2023/05/20 01:13:56;;;;;;;1.27;0.80;;;19.70;56.10;;;;;;5136457;27;45423;-72
2023/05/20 01:16:24;;;;;;;1.15;0.70;;;19.70;56.10;;;;;;5143168;27;45406;-72
2023/05/20 01:18:56;;;;;;;2.67;0.80;;;19.70;56.40;;;;;;5134171;27;45608;-71
2023/05/20 01:21:23;;;;;;;1.50;0.70;;;19.60;56.30;;;;;;5127796;27;45283;-70
2023/05/20 01:23:51;;;;;;;0.85;0.63;;;19.70;56.50;;;;;;5126161;27;45476;-70
2023/05/20 01:26:20;;;;;;;1.50;0.80;;;19.70;56.60;;;;;;5130594;27;45426;-70
2023/05/20 01:28:49;;;;;;;1.60;0.98;;;19.70;56.50;;;;;;5127858;27;48362;-70
2023/05/20 01:31:21;;;;;;;1.05;0.80;;;19.70;56.50;;;;;;5124686;27;45701;-70
2023/05/20 01:33:51;;;;;;;0.95;0.70;;;19.70;56.50;;;;;;5129325;27;45787;-71
2023/05/20 01:36:21;;;;;;;1.60;0.80;;;19.60;56.50;;;;;;5123236;27;45387;-70
2023/05/20 01:38:48;;;;;;;1.20;0.70;;;19.60;56.60;;;;;;5123812;27;47521;-70
2023/05/20 01:41:17;;;;;;;1.42;0.93;;;19.60;56.50;;;;;;5127023;27;45566;-70
2023/05/20 01:43:44;;;;;;;1.10;0.70;;;19.60;56.30;;;;;;5125305;27;45418;-70
2023/05/20 01:46:11;;;;;;;1.23;0.70;;;19.60;56.40;;;;;;5128810;27;45398;-70
2023/05/20 01:48:38;;;;;;;2.05;0.80;;;19.60;56.20;;;;;;5133237;27;45529;-70
2023/05/20 01:51:05;;;;;;;1.98;0.93;;;19.60;56.20;;;;;;5133832;27;45260;-70
2023/05/20 01:53:32;;;;;;;1.27;0.80;;;19.60;56.20;;;;;;5131788;27;45519;-70
2023/05/20 01:55:59;;;;;;;1.60;0.80;;;19.60;56.30;;;;;;5134628;27;45445;-71
2023/05/20 01:58:27;;;;;;;1.75;0.80;;;19.60;56.10;;;;;;5132400;27;47085;-71
2023/05/20 02:00:53;;;;;;;2.45;1.20;;;19.60;56.20;;;;;;5131812;27;45440;-70
2023/05/20 02:03:20;;;;;;;1.77;1.27;;;19.60;56.20;;;;;;5144999;27;45382;-70
2023/05/20 02:05:47;;;;;;;1.13;0.73;;;19.60;56.00;;;;;;5131726;27;45678;-70
2023/05/20 02:08:14;;;;;;;1.10;0.75;;;19.60;56.10;;;;;;5127930;27;47699;-71
2023/05/20 02:10:41;;;;;;;1.48;0.98;;;19.60;56.20;;;;;;5132598;27;45448;-71
2023/05/20 02:13:08;;;;;;;0.77;0.50;;;19.60;56.30;;;;;;5134037;27;45505;-70
2023/05/20 02:15:36;;;;;;;0.98;0.70;;;19.60;56.30;;;;;;5122948;27;45377;-70
2023/05/20 02:18:04;;;;;;;1.85;0.93;;;19.60;56.50;;;;;;5123131;27;46589;-70
2023/05/20 02:20:30;;;;;;;1.50;0.98;;;19.60;56.50;;;;;;5123506;27;45326;-70
2023/05/20 02:22:57;;;;;;;1.88;1.05;;;19.60;56.60;;;;;;5127775;27;45426;-70
2023/05/20 02:25:24;;;;;;;2.00;0.85;;;19.60;56.60;;;;;;5127906;27;45295;-71
2023/05/20 02:27:51;;;;;;;1.20;0.70;;;19.60;56.60;;;;;;5137314;27;47685;-70
2023/05/20 02:30:18;;;;;;;1.20;0.80;;;19.60;56.60;;;;;;5123791;27;45280;-70
2023/05/20 02:32:46;;;;;;;1.30;0.90;;;19.60;56.60;;;;;;5132212;27;45290;-71
2023/05/20 02:35:13;;;;;;;2.05;0.82;;;19.60;56.50;;;;;;5126361;27;45300;-71
2023/05/20 02:37:40;;;;;;;1.05;0.65;;;19.60;56.50;;;;;;5133676;27;47161;-70
2023/05/20 02:40:09;;;;;;;4.55;0.73;;;19.60;56.50;;;;;;5134949;27;45370;-70
2023/05/20 02:42:35;;;;;;;1.58;0.95;;;19.60;56.20;;;;;;5132435;27;45352;-70
2023/05/20 02:45:02;;;;;;;1.75;1.10;;;19.60;56.20;;;;;;5130175;27;45319;-70
2023/05/20 02:47:29;;;;;;;2.13;1.05;;;19.60;56.00;;;;;;5139479;27;47092;-72
2023/05/20 02:49:57;;;;;;;1.25;0.90;;;19.60;55.90;;;;;;5134332;27;45415;-70
2023/05/20 02:52:24;;;;;;;1.48;0.90;;;19.60;56.10;;;;;;5132476;27;45302;-71
2023/05/20 02:54:51;;;;;;;1.08;0.93;;;19.60;56.20;;;;;;5131481;27;45493;-70
2023/05/20 02:57:18;;;;;;;1.20;1.05;;;19.60;56.40;;;;;;5126262;27;45348;-70
2023/05/20 02:59:45;;;;;;;1.95;0.80;;;19.60;56.20;;;;;;5138061;27;45333;-70
2023/05/20 03:02:11;;;;;;;1.20;0.80;;;19.60;56.10;;;;;;5131585;27;45322;-70
2023/05/20 03:04:39;;;;;;;2.15;0.88;;;19.50;56.20;;;;;;5128659;27;45548;-70
2023/05/20 03:07:07;;;;;;;1.67;0.90;;;19.50;56.30;;;;;;5125953;27;46095;-70
2023/05/20 03:09:34;;;;;;;1.23;0.85;;;19.50;56.40;;;;;;5131722;27;45650;-71
2023/05/20 03:12:01;;;;;;;1.58;0.80;;;19.50;56.40;;;;;;5132589;27;45513;-70
2023/05/20 03:14:28;;;;;;;1.67;0.80;;;19.50;56.40;;;;;;5131190;27;45425;-71
2023/05/20 03:16:55;;;;;;;1.13;0.90;;;19.60;56.60;;;;;;5126157;27;45417;-70
2023/05/20 03:19:22;;;;;;;1.90;0.88;;;19.50;56.50;;;;;;5136114;27;45425;-70
2023/05/20 03:21:49;;;;;;;1.95;1.02;;;19.50;56.40;;;;;;5130627;27;45364;-70
2023/05/20 03:24:18;;;;;;;1.40;0.95;;;19.60;56.60;;;;;;5134335;27;45797;-70
2023/05/20 03:26:45;;;;;;;1.20;0.80;;;19.60;56.60;;;;;;5133928;27;47714;-72
2023/05/20 03:29:12;;;;;;;1.35;0.98;;;19.50;56.40;;;;;;5125149;27;45937;-70
2023/05/20 03:31:39;;;;;;;1.30;0.85;;;19.50;56.40;;;;;;5132146;27;45360;-70
2023/05/20 03:34:07;;;;;;;1.92;0.82;;;19.50;56.20;;;;;;5135141;27;45525;-70
2023/05/20 03:36:34;;;;;;;3.60;0.80;;;19.60;56.60;;;;;;5132347;27;47609;-70
2023/05/20 03:39:03;;;;;;;1.38;0.90;;;19.60;56.50;;;;;;5127567;27;45366;-70
2023/05/20 03:41:32;;;;;;;1.20;0.80;;;19.60;56.30;;;;;;5125934;27;45264;-70
2023/05/20 03:43:59;;;;;;;1.85;0.90;;;19.50;56.10;;;;;;5130639;27;45548;-70
2023/05/20 03:46:26;;;;;;;1.00;0.75;;;19.50;56.10;;;;;;5136667;27;47509;-70
2023/05/20 03:48:52;;;;;;;2.70;1.00;;;19.50;56.00;;;;;;5129213;27;45774;-71
2023/05/20 03:51:19;;;;;;;0.70;0.70;;;19.60;55.90;;;;;;5126774;27;45371;-71
2023/05/20 03:53:46;;;;;;;1.50;0.88;;;19.50;55.90;;;;;;5126228;27;45450;-70
2023/05/20 03:56:13;;;;;;;1.30;0.93;;;19.50;56.00;;;;;;5125080;27;46659;-70
2023/05/20 03:58:41;;;;;;;1.52;0.77;;;19.50;55.80;;;;;;5131821;27;45727;-70
2023/05/20 04:01:07;;;;;;;1.75;1.05;;;19.50;55.80;;;;;;5130730;27;45499;-70
2023/05/20 04:03:34;;;;;;;1.73;1.02;;;19.50;55.70;;;;;;5131897;27;45348;-71
2023/05/20 04:06:01;;;;;;;0.80;0.80;;;19.50;55.70;;;;;;5129889;27;46302;-71
2023/05/20 04:08:28;;;;;;;2.90;1.10;;;19.50;55.80;;;;;;5126693;27;45321;-71
2023/05/20 04:10:56;;;;;;;2.05;0.80;;;19.50;55.80;;;;;;5136833;27;45476;-71
2023/05/20 04:13:24;;;;;;;1.00;0.90;;;19.50;55.90;;;;;;5136158;27;45374;-70
2023/05/20 04:15:52;;;;;;;1.38;1.02;;;19.50;57.10;;;;;;5124412;27;45450;-70
2023/05/20 04:18:19;;;;;;;1.05;0.70;;;19.50;55.80;;;;;;5125646;27;45442;-70
2023/05/20 04:20:46;;;;;;;1.33;0.77;;;19.60;56.00;;;;;;5139299;27;45283;-71
2023/05/20 04:23:13;;;;;;;1.70;0.75;;;19.50;56.00;;;;;;5141829;27;45489;-71
2023/05/20 04:25:40;;;;;;;1.00;0.90;;;19.60;56.10;;;;;;5128594;27;45513;-70
2023/05/20 04:28:09;;;;;;;1.13;0.70;;;19.50;55.90;;;;;;5139579;27;45471;-70
2023/05/20 04:30:36;;;;;;;1.20;0.90;;;19.60;56.10;;;;;;5133734;27;45468;-70
2023/05/20 04:33:05;;;;;;;0.95;0.85;;;19.60;56.00;;;;;;5137365;27;45449;-70
2023/05/20 04:35:33;;;;;;;1.00;0.80;;;19.60;56.10;;;;;;5135608;27;47508;-70
2023/05/20 04:38:00;;;;;;;0.90;0.80;;;19.60;56.20;;;;;;5146195;27;45386;-70
2023/05/20 04:40:27;;;;;;;1.20;0.90;;;19.50;55.90;;;;;;5131730;27;45331;-70
2023/05/20 04:42:54;;;;;;;0.98;0.73;;;19.60;56.00;;;;;;5136065;27;45417;-70
2023/05/20 04:45:22;;;;;;;1.13;0.85;;;19.60;56.00;;;;;;5124076;27;48123;-71
2023/05/20 04:47:49;;;;;;;1.38;0.90;;;19.60;55.90;;;;;;5124147;27;45480;-71
2023/05/20 04:50:17;;;;;;;1.75;0.90;;;19.50;55.70;;;;;;5130832;27;45564;-70
2023/05/20 04:52:45;;;;;;;2.47;0.80;;;19.50;55.70;;;;;;5124024;27;45463;-70
2023/05/20 04:55:12;;;;;;;2.70;1.02;;;19.50;55.80;;;;;;5130618;27;46738;-70
2023/05/20 04:57:40;;;;;;;1.02;0.70;;;19.50;55.70;;;;;;5133331;27;45520;-70
2023/05/20 05:00:09;;;;;;;1.83;0.90;;;19.50;55.70;;;;;;5132619;27;45395;-71
2023/05/20 05:02:36;;;;;;;1.35;0.90;;;19.50;55.70;;;;;;5137902;27;45321;-71
2023/05/20 05:05:03;;;;;;;1.92;1.20;;;19.50;55.80;;;;;;5126543;27;46281;-71
2023/05/20 05:07:31;;;;;;;1.30;0.80;;;19.50;55.80;;;;;;5128873;27;45415;-70
2023/05/20 05:09:58;;;;;;;1.08;0.82;;;19.50;55.90;;;;;;5128459;27;45288;-68
2023/05/20 05:12:24;;;;;;;1.45;1.10;;;19.50;55.90;;;;;;5128612;27;45543;-70
2023/05/20 05:14:51;;;;;;;2.65;0.80;;;19.60;55.90;;;;;;5124893;27;46084;-70
2023/05/20 05:17:18;;;;;;;0.85;0.70;;;19.60;56.00;;;;;;5123564;27;45471;-71
2023/05/20 05:19:44;;;;;;;1.15;0.80;;;19.60;55.90;;;;;;5130544;27;45441;-71
2023/05/20 05:22:11;;;;;;;0.80;0.80;;;19.60;56.00;;;;;;5124646;27;45312;-70
2023/05/20 05:24:40;;;;;;;2.33;1.15;;;19.60;56.10;;;;;;5135584;27;46511;-70
2023/05/20 05:27:06;;;;;;;1.35;0.90;;;19.60;56.20;;;;;;5129116;27;45630;-70
2023/05/20 05:29:33;;;;;;;1.77;0.80;;;19.60;56.20;;;;;;5131870;27;45356;-70
2023/05/20 05:32:00;;;;;;;1.48;1.08;;;19.60;56.00;;;;;;5134891;27;45419;-70
2023/05/20 05:34:27;;;;;;;1.30;0.90;;;19.60;56.10;;;;;;5123550;27;47761;-70
2023/05/20 05:36:53;;;;;;;0.98;0.80;;;19.60;56.30;;;;;;5125128;27;45415;-70
2023/05/20 05:39:20;;;;;;;1.17;0.85;;;19.60;56.20;;;;;;5124168;27;45477;-70
2023/05/20 05:41:48;;;;;;;0.93;0.68;;;19.60;56.00;;;;;;5125620;27;45581;-70
2023/05/20 05:44:15;;;;;;;0.93;0.80;;;19.60;55.90;;;;;;5133254;27;45472;-70
2023/05/20 05:46:42;;;;;;;1.40;0.80;;;19.60;55.80;;;;;;5131137;27;45422;-71
2023/05/20 05:49:09;;;;;;;2.53;0.90;;;19.60;55.80;;;;;;5134939;27;45282;-70
2023/05/20 05:51:35;;;;;;;1.10;0.75;;;19.60;55.70;;;;;;5139176;27;45457;-70
2023/05/20 05:54:02;;;;;;;2.05;0.98;;;19.60;55.80;;;;;;5129341;27;48131;-71
2023/05/20 05:56:29;;;;;;;2.85;1.10;;;19.60;56.00;;;;;;5123060;27;45276;-72
2023/05/20 05:58:57;;;;;;;1.40;1.00;;;19.60;56.30;;;;;;5134255;27;45339;-70
2023/05/20 06:01:24;;;;;;;2.05;1.00;;;19.60;56.50;;;;;;5126598;27;45378;-70
2023/05/20 06:03:51;;;;;;;1.90;0.70;;;19.60;56.60;;;;;;5144653;27;47463;-70
2023/05/20 06:06:17;;;;;;;0.93;0.80;;;19.60;56.70;;;;;;5139420;27;45375;-70
2023/05/20 06:08:44;;;;;;;1.80;0.90;;;19.60;56.80;;;;;;5124291;27;45482;-70
2023/05/20 06:11:11;;;;;;;1.63;1.17;;;19.60;56.80;;;;;;5123202;27;45453;-69
2023/05/20 06:13:38;;;;;;;0.70;0.70;;;19.60;56.90;;;;;;5132234;27;45221;-70
2023/05/20 06:16:06;;;;;;;1.10;0.80;;;19.60;56.90;;;;;;5137933;27;45345;-71
2023/05/20 06:18:33;;;;;;;1.58;1.15;;;19.60;57.00;;;;;;5133604;27;45321;-70
2023/05/20 06:21:00;;;;;;;1.20;0.90;;;19.60;57.00;;;;;;5130742;27;45258;-70
2023/05/20 06:23:27;;;;;;;2.40;0.80;;;19.60;57.00;;;;;;5126488;27;45357;-70
2023/05/20 06:25:58;;;;;;;2.58;1.10;;;19.60;57.10;;;;;;5139615;27;45225;-69
2023/05/20 06:28:25;;;;;;;2.90;1.10;;;19.70;57.30;;;;;;5144336;27;45366;-70
2023/05/20 06:30:54;;;;;;;1.17;0.80;;;19.70;57.30;;;;;;5130714;27;45254;-70
2023/05/20 06:33:24;;;;;;;1.45;0.90;;;19.70;57.40;;;;;;5123308;27;46647;-70
2023/05/20 06:35:51;;;;;;;1.63;0.98;;;19.70;57.40;;;;;;5130564;27;45285;-70
2023/05/20 06:38:18;;;;;;;2.90;1.08;;;19.70;57.40;;;;;;5128858;27;45403;-70
2023/05/20 06:40:45;;;;;;;1.48;0.80;;;19.70;57.50;;;;;;5131025;27;45554;-70
2023/05/20 06:43:11;;;;;;;3.88;0.80;;;19.70;57.60;;;;;;5129836;27;46259;-70
2023/05/20 06:45:38;;;;;;;2.10;0.90;;;19.70;57.60;;;;;;5124213;27;45301;-70
2023/05/20 06:48:05;;;;;;;1.23;0.93;;;19.70;57.70;;;;;;5123655;27;45387;-70
2023/05/20 06:50:34;;;;;;;2.30;0.95;;;19.70;57.70;;;;;;5123908;27;45354;-70
2023/05/20 06:53:01;;;;;;;1.92;1.17;;;19.70;57.80;;;;;;5127126;27;45600;-70
2023/05/20 06:55:27;;;;;;;1.17;0.70;;;19.70;57.90;;;;;;5126587;27;45360;-70
2023/05/20 06:57:54;;;;;;;1.58;0.80;;;19.70;58.00;;;;;;5124521;27;45480;-70
2023/05/20 07:00:21;;;;;;;1.20;0.70;;;19.70;58.10;;;;;;5134534;27;45628;-70
2023/05/20 07:02:48;;;;;;;1.10;0.70;;;19.70;58.10;;;;;;5129417;27;47535;-70
2023/05/20 07:05:15;;;;;;;1.35;1.02;;;19.70;58.10;;;;;;5124793;27;45340;-70
2023/05/20 07:07:43;;;;;;;1.13;0.80;;;19.70;58.20;;;;;;5135158;27;45326;-70
2023/05/20 07:10:10;;;;;;;1.20;0.85;;;19.70;58.20;;;;;;5127478;27;45449;-70
2023/05/20 07:12:37;;;;;;;1.90;1.05;;;19.70;58.20;;;;;;5128810;27;47490;-71
2023/05/20 07:15:04;;;;;;;2.28;0.90;;;19.70;58.10;;;;;;5126536;27;45392;-70
2023/05/20 07:17:31;;;;;;;1.27;0.70;;;19.70;58.30;;;;;;5125337;27;45410;-71
2023/05/20 07:19:57;;;;;;;0.90;0.70;;;19.70;58.30;;;;;;5124799;27;45479;-71
2023/05/20 07:22:24;;;;;;;2.17;1.00;;;19.70;58.30;;;;;;5129114;27;45727;-71
2023/05/20 07:24:52;;;;;;;1.95;1.00;;;19.70;58.30;;;;;;5130616;27;45386;-71
2023/05/20 07:27:19;;;;;;;1.23;1.10;;;19.70;58.40;;;;;;5134249;27;45373;-70
2023/05/20 07:29:46;;;;;;;0.90;0.70;;;19.70;58.40;;;;;;5126622;27;45413;-70
2023/05/20 07:32:12;;;;;;;0.90;0.70;;;19.70;58.50;;;;;;5133798;27;45520;-70
2023/05/20 07:34:39;;;;;;;1.00;0.77;;;19.70;58.50;;;;;;5125897;27;45283;-69
2023/05/20 07:37:06;;;;;;;1.35;0.70;;;19.70;58.50;;;;;;5126164;27;45317;-69
2023/05/20 07:39:33;;;;;;;1.15;0.80;;;19.70;58.50;;;;;;5131990;27;45518;-70
2023/05/20 07:42:01;;;;;;;1.02;0.70;;;19.70;58.50;;;;;;5128440;27;45417;-70
2023/05/20 07:44:27;;;;;;;0.90;0.73;;;19.70;58.50;;;;;;5127150;27;45285;-70
2023/05/20 07:46:55;;;;;;;0.80;0.80;;;19.70;58.60;;;;;;5125071;27;45417;-71
2023/05/20 07:49:22;;;;;;;1.02;0.70;;;19.70;58.60;;;;;;5126428;27;45268;-70
2023/05/20 07:51:49;;;;;;;1.85;0.80;;;19.70;58.70;;;;;;5125903;27;45391;-70
2023/05/20 07:54:16;;;;;;;1.80;0.95;;;19.70;58.70;;;;;;5125682;27;45287;-70
2023/05/20 07:56:43;;;;;;;1.48;0.90;;;19.70;58.60;;;;;;5140729;27;45392;-70
2023/05/20 07:59:11;;;;;;;4.18;1.00;;;19.70;58.70;;;;;;5137713;27;45257;-70
2023/05/20 08:01:41;;;;;;;1.98;0.82;;;19.70;59.60;;;;;;5125417;27;45307;-70
2023/05/20 08:04:07;;;;;;;0.77;0.75;;;19.70;59.30;;;;;;5128211;27;45417;-70
2023/05/20 08:06:35;;;;;;;1.10;0.70;;;19.70;59.20;;;;;;5128891;27;45618;-70
2023/05/20 08:09:02;;;;;;;2.53;0.73;;;19.70;59.30;;;;;;5133961;27;45461;-70
2023/05/20 08:11:29;;;;;;;1.17;0.77;;;19.70;59.20;;;;;;5125817;27;48296;-70
2023/05/20 08:13:56;;;;;;;1.38;0.63;;;19.70;59.10;;;;;;5129931;27;45485;-71
2023/05/20 08:16:24;;;;;;;1.73;0.93;;;19.70;59.00;;;;;;5125864;27;45481;-70
2023/05/20 08:18:51;;;;;;;2.05;1.15;;;19.70;59.10;;;;;;5130415;27;45403;-70
2023/05/20 08:21:17;;;;;;;0.65;0.60;;;19.70;58.90;;;;;;5129579;27;47522;-70
2023/05/20 08:23:44;;;;;;;3.10;0.80;;;19.80;58.90;;;;;;5125239;27;45321;-70
2023/05/20 08:26:11;;;;;;;1.88;0.90;;;19.80;58.90;;;;;;5126407;27;45287;-70
2023/05/20 08:28:39;;;;;;;1.00;0.80;;;19.80;58.90;;;;;;5124908;27;45241;-70
2023/05/20 08:31:06;;;;;;;1.35;0.90;;;19.80;58.90;;;;;;5124075;27;46407;-73
2023/05/20 08:33:34;;;;;;;0.70;0.70;;;19.80;59.00;;;;;;5135984;27;45376;-70
2023/05/20 08:36:00;;;;;;;0.95;0.73;;;19.80;59.00;;;;;;5125166;27;45362;-70
2023/05/20 08:38:27;;;;;;;1.20;0.80;;;19.80;58.90;;;;;;5131111;27;45531;-70
2023/05/20 08:40:56;;;;;;;1.65;0.90;;;19.80;58.80;;;;;;5133538;27;48583;-70
2023/05/20 08:43:23;;;;;;;1.75;0.77;;;19.80;58.70;;;;;;5125183;27;45716;-70
2023/05/20 08:45:51;;;;;;;1.25;0.57;;;19.80;58.70;;;;;;5124168;27;45219;-70
2023/05/20 08:48:18;;;;;;;1.05;0.65;;;19.80;58.80;;;;;;5127467;27;45319;-69
2023/05/20 08:50:50;;;;;;;1.98;0.90;;;19.80;58.80;;;;;;5128265;27;47939;-72
2023/05/20 08:53:17;;;;;;;1.45;1.10;;;19.80;59.00;;;;;;5123525;27;45390;-71
2023/05/20 08:55:46;;;;;;;1.70;0.98;;;19.80;58.80;;;;;;5125262;27;45269;-70
2023/05/20 08:58:15;;;;;;;1.42;1.08;;;19.80;58.80;;;;;;5129350;27;45560;-70
2023/05/20 09:00:41;;;;;;;2.15;0.82;;;19.80;58.90;;;;;;5129314;27;48098;-70
2023/05/20 09:03:08;;;;;;;2.00;1.05;;;19.80;59.70;;;;;;5125260;27;45626;-69
2023/05/20 09:05:35;;;;;;;1.20;0.80;;;19.80;59.90;;;;;;5127588;27;45535;-71
2023/05/20 09:08:07;;;;;;;1.02;0.88;;;19.90;59.80;;;;;;5125180;27;45549;-70
2023/05/20 09:10:35;;;;;;;1.00;0.80;;;19.80;59.90;;;;;;5128994;27;45381;-69
2023/05/20 09:13:03;;;;;;;1.90;1.02;;;19.80;60.10;;;;;;5130804;27;45351;-70
2023/05/20 09:15:29;;;;;;;1.35;1.00;;;19.80;59.70;;;;;;5128582;27;45305;-69
2023/05/20 09:17:59;;;;;;;1.00;0.90;;;19.80;59.50;;;;;;5124394;27;45311;-69
2023/05/20 09:20:28;;;;;;;1.20;0.98;;;19.90;59.50;;;;;;5124543;27;46295;-70
2023/05/20 09:22:58;;;;;;;1.75;1.00;;;19.90;59.40;;;;;;5124689;27;45676;-70
2023/05/20 09:25:27;;;;;;;1.35;1.00;;;19.90;60.50;;;;;;5131306;27;45727;-72
2023/05/20 09:27:54;;;;;;;1.33;0.80;;;19.90;59.30;;;;;;5125251;27;45255;-70
2023/05/20 09:30:21;;;;;;;1.60;0.93;;;19.90;59.30;;;;;;5126810;27;47619;-70
2023/05/20 09:32:53;;;;;;;0.98;0.85;;;19.90;60.30;;;;;;5128171;27;45609;-70
2023/05/20 09:35:21;;;;;;;1.92;0.90;;;19.90;59.20;;;;;;5121463;27;45509;-69
2023/05/20 09:37:48;;;;;;;1.25;0.90;;;19.90;59.20;;;;;;5133046;27;45330;-70
2023/05/20 09:40:16;;;;;;;1.45;1.00;;;19.90;59.20;;;;;;5130628;27;47004;-70
2023/05/20 09:42:55;;;;;;;2.30;1.00;;;19.90;59.20;;;;;;5132619;27;45273;-69
2023/05/20 09:45:23;;;;;;;0.80;0.80;;;19.90;59.20;;;;;;5123768;27;45430;-70
2023/05/20 09:47:51;;;;;;;1.40;1.00;;;19.90;59.20;;;;;;5124634;27;45292;-70
2023/05/20 09:50:20;;;;;;;1.40;1.10;;;19.90;59.20;;;;;;5124272;27;45459;-70
2023/05/20 09:52:47;;;;;;;1.70;1.05;;;19.90;59.30;;;;;;5123457;27;45336;-70
2023/05/20 09:55:16;;;;;;;1.00;0.90;;;19.90;59.30;;;;;;5127224;27;45402;-70
2023/05/20 09:57:44;;;;;;;1.00;0.77;;;19.80;59.30;;;;;;5129634;27;45292;-71
2023/05/20 10:00:13;;;;;;;1.58;1.13;;;19.90;59.50;;;;;;5128248;27;46562;-71
2023/05/20 10:02:43;;;;;;;1.27;1.00;;;19.80;59.40;;;;;;5123512;27;45976;-72
2023/05/20 10:05:19;;;;;;;1.88;1.00;;;19.80;59.40;;;;;;5138189;27;45480;-71
2023/05/20 10:08:12;;;;;;;0.98;0.70;;;19.80;59.40;;;;;;5123206;27;45435;-70
2023/05/20 10:10:47;;;;;;;1.13;0.93;;;19.80;59.40;;;;;;5125344;27;47252;-70
2023/05/20 10:13:31;;;;;;;1.77;1.13;;;19.80;59.50;;;;;;5128916;27;45489;-70
2023/05/20 10:16:06;;;;;;;1.60;1.00;;;19.80;59.50;;;;;;5123345;27;45352;-70
2023/05/20 10:18:45;;;;;;;1.23;0.90;;;19.80;59.50;;;;;;5120954;27;45252;-70
2023/05/20 10:21:16;;;;;;;1.70;1.10;;;19.80;59.60;;;;;;5128495;27;45418;-70
2023/05/20 10:23:43;;;;;;;1.40;0.80;;;19.80;59.60;;;;;;5123782;27;45301;-70
2023/05/20 10:26:10;;;;;;;2.42;0.93;;;19.80;60.70;;;;;;5128821;27;45529;-70
2023/05/20 10:28:41;;;;;;;1.10;0.90;;;19.90;59.60;;;;;;5124046;27;45411;-69
2023/05/20 10:31:18;;;;;;;1.55;1.00;;;19.90;59.60;;;;;;5126731;27;47544;-71
2023/05/20 10:33:46;;;;;;;1.95;1.10;;;19.90;59.70;;;;;;5123695;27;45404;-71
2023/05/20 10:36:25;;;;;;;1.88;1.08;;;19.90;59.70;;;;;;5128738;27;45378;-70
2023/05/20 10:38:53;;;;;;;1.73;0.90;;;19.90;59.70;;;;;;5125552;27;45700;-71
2023/05/20 10:41:21;;;;;;;1.02;0.90;;;19.90;59.70;;;;;;5125505;27;47260;-71
2023/05/20 10:43:59;;;;;;;1.50;1.20;;;19.90;59.70;;;;;;5127987;27;45268;-72
2023/05/20 10:46:26;;;;;;;1.63;1.17;;;19.80;59.80;;;;;;5124408;27;45556;-73
2023/05/20 10:48:53;;;;;;;1.25;1.10;;;19.80;59.80;;;;;;5131649;27;45296;-70
2023/05/20 10:51:20;;;;;;;1.42;1.15;;;19.80;59.90;;;;;;5129225;27;47492;-70
2023/05/20 10:53:47;;;;;;;1.13;0.98;;;19.80;59.90;;;;;;5129383;27;45696;-69
2023/05/20 10:56:19;;;;;;;2.25;1.35;;;19.80;59.90;;;;;;5123579;27;45661;-70
2023/05/20 10:58:45;;;;;;;1.65;1.15;;;19.80;60.00;;;;;;5137380;27;45287;-70
2023/05/20 11:01:15;;;;;;;1.25;0.90;;;19.80;60.10;;;;;;5139303;27;47654;-69
2023/05/20 11:03:43;;;;;;;1.20;1.08;;;19.80;60.20;;;;;;5161905;27;45399;-69
2023/05/20 11:06:13;;;;;;;1.30;1.10;;;19.80;60.30;;;;;;5128632;27;45328;-70
2023/05/20 11:08:40;;;;;;;1.77;1.23;;;19.80;60.50;;;;;;5128526;27;45493;-70
2023/05/20 11:11:07;;;;;;;2.10;1.10;;;19.80;60.30;;;;;;5127144;27;47171;-70
2023/05/20 11:13:33;;;;;;;1.55;1.00;;;19.80;60.40;;;;;;5131466;27;45288;-70
2023/05/20 11:16:01;;;;;;;1.88;1.00;;;19.80;60.40;;;;;;5126471;27;45236;-70
2023/05/20 11:18:30;;;;;;;1.20;1.00;;;19.80;60.50;;;;;;5127564;27;45404;-70
2023/05/20 11:20:57;;;;;;;2.08;1.00;;;19.80;60.30;;;;;;5126463;27;46543;-70
2023/05/20 11:23:26;;;;;;;1.55;1.00;;;19.80;60.30;;;;;;5126633;27;45283;-70
2023/05/20 11:25:54;;;;;;;1.52;0.85;;;19.80;60.20;;;;;;5125895;27;45435;-70
2023/05/20 11:28:21;;;;;;;1.40;0.80;;;19.90;60.30;;;;;;5138984;27;45479;-70
2023/05/20 11:30:49;;;;;;;0.73;0.73;;;19.90;60.40;;;;;;5134867;27;47543;-70
2023/05/20 11:33:17;;;;;;;1.77;1.15;;;19.90;60.40;;;;;;5126260;27;45414;-70
2023/05/20 11:35:47;;;;;;;1.38;1.00;;;19.90;60.30;;;;;;5134667;27;45222;-70
2023/05/20 11:38:14;;;;;;;1.73;1.08;;;19.90;60.30;;;;;;5126545;27;45314;-70
2023/05/20 11:40:45;;;;;;;1.33;0.80;;;19.90;60.30;;;;;;5133099;27;47180;-70
2023/05/20 11:43:13;;;;;;;2.05;1.40;;;19.90;60.30;;;;;;5126233;27;45529;-70
2023/05/20 11:45:41;;;;;;;1.95;1.35;;;19.90;60.30;;;;;;5125851;27;45482;-70
2023/05/20 11:48:08;;;;;;;1.38;1.10;;;19.80;60.20;;;;;;5126324;27;45485;-70
2023/05/20 11:50:38;;;;;;;1.50;1.13;;;19.80;60.30;;;;;;5125969;27;48189;-71
2023/05/20 11:53:07;;;;;;;1.13;1.00;;;19.90;60.40;;;;;;5126164;27;45422;-70
2023/05/20 11:55:35;;;;;;;2.00;1.20;;;19.90;60.40;;;;;;5125588;27;45233;-69
2023/05/20 11:58:03;;;;;;;3.05;1.20;;;19.90;60.60;;;;;;5126455;27;45416;-69
2023/05/20 12:00:29;;;;;;;1.80;1.02;;;19.90;60.50;;;;;;5124725;27;47971;-70
2023/05/20 12:02:56;;;;;;;1.58;1.15;;;19.90;60.50;;;;;;5126691;27;45579;-70
2023/05/20 12:05:23;;;;;;;2.20;1.30;;;19.90;60.60;;;;;;5124595;27;45398;-70
2023/05/20 12:07:50;;;;;;;1.83;1.10;;;19.80;60.50;;;;;;5124998;27;45573;-70
2023/05/20 12:10:18;;;;;;;1.63;1.30;;;19.90;60.60;;;;;;5125210;27;46621;-70
2023/05/20 12:12:45;;;;;;;1.20;1.10;;;19.80;60.50;;;;;;5130128;27;45249;-70
2023/05/20 12:15:12;;;;;;;1.70;1.25;;;19.80;60.50;;;;;;5127424;27;45327;-70
2023/05/20 12:17:47;;;;;;;1.85;1.13;;;19.80;60.50;;;;;;5137338;27;45637;-70
2023/05/20 12:20:16;;;;;;;1.80;1.20;;;19.90;60.50;;;;;;5136272;27;46751;-70
2023/05/20 12:22:43;;;;;;;1.30;1.20;;;19.90;60.50;;;;;;5126350;27;45410;-70
2023/05/20 12:25:12;;;;;;;2.60;1.70;;;19.90;60.50;;;;;;5125146;27;45435;-70
2023/05/20 12:27:40;;;;;;;2.05;1.10;;;19.90;60.50;;;;;;5125312;27;45306;-70
2023/05/20 12:30:08;;;;;;;2.03;1.08;;;19.90;60.60;;;;;;5125443;27;46264;-70
2023/05/20 12:32:35;;;;;;;1.30;1.00;;;19.90;60.60;;;;;;5125454;27;45356;-70
2023/05/20 12:35:02;;;;;;;2.08;1.30;;;19.90;60.70;;;;;;5125580;27;45322;-70
2023/05/20 12:37:29;;;;;;;1.42;1.17;;;19.90;60.70;;;;;;5130316;27;45310;-70
2023/05/20 12:39:56;;;;;;;2.00;1.30;;;19.90;60.70;;;;;;5129954;27;47430;-71
2023/05/20 12:42:22;;;;;;;2.22;1.30;;;19.90;60.80;;;;;;5127748;27;45818;-70
2023/05/20 12:44:50;;;;;;;1.58;0.95;;;19.90;60.80;;;;;;5125258;27;45291;-70
2023/05/20 12:47:17;;;;;;;3.65;1.30;;;19.90;60.90;;;;;;5127812;27;45350;-70
2023/05/20 12:49:44;;;;;;;1.17;0.90;;;19.90;61.00;;;;;;5133743;27;46590;-71